Time;durP1;ratioP1;P1;durP2;ratioP2;P2;SDS_P1;SDS_P2;PMS_P1;PMS_P2;Temp;Humidity;BMP_temperature;BMP_pressure;BME280_temperature;BME280_humidity;BME280_pressure;Samples;Min_cycle;Max_cycle;Signal;HPM_P1;HPM_P2
2021/10/09 00:01:31;;;;;;;;;1.75;1.25;;;;;13.87;66.50;102192.03;5063889;28;45218;-78
2021/10/09 00:03:56;;;;;;;;;1.75;0.00;;;;;13.93;66.80;102197.34;5064146;28;45224;-78
2021/10/09 00:06:22;;;;;;;;;0.00;0.00;;;;;14.21;66.53;102239.72;5063094;28;45383;-78
2021/10/09 00:12:01;;;;;;;;;0.50;0.00;;;;;13.63;66.12;102168.00;5051004;28;45251;-78
2021/10/09 00:14:27;;;;;;;;;0.00;0.00;;;;;13.94;66.38;102197.38;5042616;28;47210;-78
2021/10/09 00:16:52;;;;;;;;;1.00;1.00;;;;;13.85;66.64;102188.47;5042283;28;45251;-78
2021/10/09 00:19:18;;;;;;;;;0.00;0.00;;;;;13.92;66.82;102195.59;5042803;28;45220;-78
2021/10/09 00:22:06;;;;;;;;;0.00;0.00;;;;;13.04;66.31;102046.56;5042848;28;45318;-78
2021/10/09 00:24:55;;;;;;;;;2.50;1.25;;;;;13.14;66.89;102077.28;5043423;28;46413;-77
2021/10/09 00:27:55;;;;;;;;;;;;;;;;;;;;;
2021/10/09 00:30:21;;;;;;;;;2.75;1.75;;;;;13.89;66.76;102206.91;5042610;28;68148;-76
2021/10/09 00:33:00;;;;;;;;;0.00;0.00;;;;;13.15;66.46;102081.66;5043610;28;45613;-76
2021/10/09 00:35:41;;;;;;;;;0.00;0.00;;;;;13.24;66.63;102098.38;5043551;28;45658;-76
2021/10/09 00:38:23;;;;;;;;;2.25;0.50;;;;;14.08;66.71;102238.63;5042411;28;45402;-76
2021/10/09 00:40:49;;;;;;;;;0.00;0.00;;;;;13.13;66.51;102069.38;5061872;28;45326;-76
2021/10/09 00:43:14;;;;;;;;;1.00;0.00;;;;;13.54;66.50;102150.41;5062567;28;45196;-75
2021/10/09 00:45:49;;;;;;;;;0.00;0.00;;;;;13.87;66.74;102208.59;5063606;28;45572;-77
2021/10/09 00:48:15;;;;;;;;;0.00;0.00;;;;;14.00;66.71;102235.00;5062298;28;45468;-76
2021/10/09 00:50:41;;;;;;;;;1.00;1.00;;;;;13.96;67.16;102217.47;5062008;28;45413;-76
2021/10/09 00:53:07;;;;;;;;;1.00;1.00;;;;;14.01;66.66;102239.38;5062798;28;45370;-77
2021/10/09 00:55:34;;;;;;;;;0.00;0.00;;;;;13.97;66.56;102220.13;5062108;28;45554;-77
2021/10/09 00:58:02;;;;;;;;;1.00;0.00;;;;;13.59;66.96;102160.97;5062010;28;45353;-77
2021/10/09 01:00:28;;;;;;;;;3.50;1.75;;;;;13.77;66.50;102183.09;5061764;28;45273;-77
2021/10/09 01:02:56;;;;;;;;;0.00;0.00;;;;;13.64;66.74;102167.19;5061992;28;45326;-77
2021/10/09 01:05:23;;;;;;;;;1.00;1.00;;;;;13.91;66.75;102213.03;5062007;28;47423;-77
2021/10/09 01:07:49;;;;;;;;;0.00;0.00;;;;;13.75;66.65;102190.91;5063402;28;45451;-77
2021/10/09 01:10:14;;;;;;;;;0.50;0.25;;;;;13.81;66.55;102216.31;5063535;28;45331;-77
2021/10/09 01:12:40;;;;;;;;;0.00;0.00;;;;;13.60;66.79;102188.03;5062973;28;45187;-76
2021/10/09 01:15:19;;;;;;;;;0.00;0.00;;;;;13.62;66.89;102181.97;5063277;28;45724;-77
2021/10/09 01:17:44;;;;;;;;;0.00;0.00;;;;;13.73;67.04;102210.97;5062687;28;45291;-77
2021/10/09 01:20:11;;;;;;;;;1.00;1.00;;;;;13.73;67.04;102210.06;5061790;28;45332;-77
2021/10/09 01:22:36;;;;;;;;;0.00;0.00;;;;;12.80;66.90;102066.13;5062020;28;45254;-77
2021/10/09 01:25:02;;;;;;;;;0.75;0.75;;;;;13.76;67.02;102231.06;5062987;28;46719;-77
2021/10/09 01:27:28;;;;;;;;;1.00;1.00;;;;;13.30;67.08;102154.28;5061727;28;46003;-77
2021/10/09 01:29:54;;;;;;;;;0.00;0.00;;;;;13.30;66.87;102169.09;5061985;28;45344;-77
2021/10/09 01:32:19;;;;;;;;;0.50;0.50;;;;;13.57;66.98;102201.94;5061742;28;45516;-77
2021/10/09 01:34:45;;;;;;;;;0.00;0.00;;;;;13.54;67.21;102202.72;5061216;28;46958;-77
2021/10/09 01:37:12;;;;;;;;;0.25;0.25;;;;;13.29;67.24;102151.63;5062940;28;45278;-77
2021/10/09 01:39:46;;;;;;;;;0.00;0.00;;;;;13.68;67.13;102215.22;5061517;28;45343;-77
2021/10/09 01:42:12;;;;;;;;;1.25;0.00;;;;;13.35;67.16;102157.00;5061445;28;45644;-77
2021/10/09 01:44:44;;;;;;;;;0.00;0.00;;;;;13.52;67.12;102172.16;5060968;28;46048;-77
2021/10/09 01:48:01;;;;;;;;;1.50;0.00;;;;;12.65;66.85;102027.53;5060953;28;45393;-77
2021/10/09 01:50:27;;;;;;;;;0.00;0.00;;;;;13.26;67.17;102125.44;5062391;28;45364;-77
2021/10/09 01:52:52;;;;;;;;;1.00;0.00;;;;;13.49;66.71;102164.22;5062813;28;45498;-77
2021/10/09 01:55:17;;;;;;;;;0.00;0.00;;;;;13.71;66.85;102201.28;5061068;28;48654;-77
2021/10/09 01:57:43;;;;;;;;;1.50;0.50;;;;;13.59;66.90;102176.66;5061216;28;45287;-77
2021/10/09 02:00:09;;;;;;;;;0.50;0.00;;;;;13.55;66.63;102164.38;5061207;28;45396;-77
2021/10/09 02:02:34;;;;;;;;;0.00;0.00;;;;;13.44;66.72;102148.44;5062722;28;45601;-77
2021/10/09 02:05:00;;;;;;;;;1.00;1.00;;;;;13.52;66.93;102160.00;5062356;28;45458;-77
2021/10/09 02:07:26;;;;;;;;;0.50;0.50;;;;;13.74;66.46;102201.34;5061126;28;45399;-77
2021/10/09 02:09:52;;;;;;;;;0.00;0.00;;;;;13.80;66.49;102222.41;5061250;28;45415;-77
2021/10/09 02:12:17;;;;;;;;;0.00;0.00;;;;;13.32;66.56;102135.13;5050974;28;45680;-77
2021/10/09 02:14:55;;;;;;;;;2.00;1.00;;;;;13.20;66.65;102127.94;5040083;28;48343;-77
2021/10/09 02:17:43;;;;;;;;;0.00;0.00;;;;;13.66;66.51;102194.25;5041972;28;45253;-77
2021/10/09 02:25:37;;;;;;;;;0.00;0.00;;;;;13.80;66.41;102219.81;5041911;28;45690;-77
2021/10/09 02:28:03;;;;;;;;;0.00;0.00;;;;;13.57;66.47;102173.16;5042074;28;45279;-76
2021/10/09 02:30:29;;;;;;;;;0.00;0.00;;;;;13.59;66.20;102166.19;5042140;28;45296;-77
2021/10/09 02:32:54;;;;;;;;;0.00;0.00;;;;;13.05;66.28;102091.03;5042101;28;45567;-77
2021/10/09 02:35:20;;;;;;;;;0.75;0.00;;;;;13.03;66.48;102087.53;5040323;28;46916;-77
2021/10/09 02:37:45;;;;;;;;;2.00;1.00;;;;;13.58;66.72;102169.69;5041979;28;45341;-77
2021/10/09 02:40:12;;;;;;;;;1.75;1.00;;;;;13.70;66.30;102197.81;5055536;28;45380;-77
2021/10/09 02:42:38;;;;;;;;;0.00;0.00;;;;;13.42;66.42;102161.47;5062439;28;45233;-76
2021/10/09 02:45:04;;;;;;;;;0.50;0.00;;;;;13.64;66.65;102195.06;5061580;28;45455;-77
2021/10/09 02:47:29;;;;;;;;;0.00;0.00;;;;;13.76;66.88;102215.38;5061895;28;45279;-77
2021/10/09 02:49:55;;;;;;;;;0.00;0.00;;;;;13.52;66.84;102175.69;5060418;28;45197;-77
2021/10/09 02:52:21;;;;;;;;;2.75;1.00;;;;;13.73;66.68;102216.19;5060560;28;45261;-77
2021/10/09 02:54:47;;;;;;;;;0.00;0.00;;;;;13.66;66.62;102199.47;5076913;28;46448;-77
2021/10/09 02:57:15;;;;;;;;;0.25;0.25;;;;;13.61;66.68;102201.13;5076574;28;45345;-77
2021/10/09 02:59:41;;;;;;;;;0.00;0.00;;;;;13.64;66.81;102206.44;5077222;28;45464;-77
2021/10/09 03:02:34;;;;;;;;;0.25;0.25;;;;;12.91;66.65;102088.16;5077241;28;45356;-77
2021/10/09 03:05:00;;;;;;;;;1.25;0.00;;;;;13.03;66.72;102118.00;5076803;28;47043;-78
2021/10/09 03:07:25;;;;;;;;;0.25;0.25;;;;;13.51;66.70;102191.34;5061717;28;45354;-77
2021/10/09 03:09:50;;;;;;;;;0.25;0.25;;;;;13.32;66.57;102166.53;5062006;28;45279;-77
2021/10/09 03:12:16;;;;;;;;;0.50;0.50;;;;;13.23;66.77;102157.63;5050567;28;45491;-77
2021/10/09 03:14:45;;;;;;;;;0.00;0.00;;;;;13.15;66.77;102148.75;5039719;28;46841;-77
2021/10/09 03:17:10;;;;;;;;;2.00;1.00;;;;;12.68;66.96;102074.59;5039500;28;45320;-77
2021/10/09 03:19:35;;;;;;;;;0.00;0.00;;;;;12.89;66.80;102109.88;5056748;28;45336;-77
2021/10/09 03:22:01;;;;;;;;;1.00;1.00;;;;;13.30;66.89;102175.19;5041650;28;46176;-77
2021/10/09 03:24:26;;;;;;;;;0.00;0.00;;;;;13.03;66.82;102133.69;5041468;28;45999;-77
2021/10/09 03:26:52;;;;;;;;;1.00;1.00;;;;;12.98;66.42;102115.28;5042616;28;45229;-77
2021/10/09 03:29:17;;;;;;;;;4.00;1.00;;;;;13.17;66.31;102165.38;5043685;28;45319;-77
2021/10/09 03:31:43;;;;;;;;;0.00;0.00;;;;;12.85;67.13;102121.09;5043347;28;45365;-77
2021/10/09 03:34:08;;;;;;;;;1.25;0.75;;;;;13.07;67.00;102160.78;5043092;28;47396;-77
2021/10/09 03:36:57;;;;;;;;;0.50;0.00;;;;;13.04;66.89;102153.75;5044241;28;45279;-77
2021/10/09 03:40:01;;;;;;;;;1.00;1.00;;;;;13.25;67.46;102204.72;5044539;28;45332;-77
2021/10/09 03:42:50;;;;;;;;;2.75;2.50;;;;;13.24;67.05;102205.59;5043658;28;45482;-77
2021/10/09 03:46:02;;;;;;;;;0.75;0.50;;;;;12.45;67.03;102068.88;5042788;28;45533;-77
2021/10/09 03:53:27;;;;;;;;;1.50;1.00;;;;;12.95;67.58;102180.56;5044203;28;45335;-76
2021/10/09 03:55:53;;;;;;;;;0.00;0.00;;;;;12.89;67.73;102189.16;5042720;28;45418;-77
2021/10/09 03:58:19;;;;;;;;;0.25;0.25;;;;;12.48;68.00;102123.78;5042971;28;45434;-77
2021/10/09 04:00:44;;;;;;;;;3.00;2.00;;;;;12.69;67.81;102167.81;5043065;28;45319;-77
2021/10/09 04:03:10;;;;;;;;;2.25;1.00;;;;;12.38;67.94;102120.97;5044406;28;45212;-78
2021/10/09 04:05:35;;;;;;;;;4.50;2.00;;;;;12.59;68.24;102150.16;5044048;28;45582;-79
2021/10/09 04:08:04;;;;;;;;;3.00;1.00;;;;;12.77;68.24;102179.31;5043845;28;45220;-78
2021/10/09 04:10:51;;;;;;;;;2.50;1.25;;;;;12.91;68.25;102197.03;5042479;28;45298;-78
2021/10/09 04:13:19;;;;;;;;;2.00;1.50;;;;;11.68;67.99;101982.69;5062301;28;45356;-78
2021/10/09 04:16:09;;;;;;;;;;;;;;;;;;;;;
2021/10/09 04:18:44;;;;;;;;;1.75;1.75;;;;;12.14;67.76;102072.56;5062381;28;73285;-78
2021/10/09 04:21:52;;;;;;;;;0.50;0.50;;;;;12.11;68.01;102055.94;5063982;28;45204;-78
2021/10/09 04:24:19;;;;;;;;;0.25;0.25;;;;;12.47;67.82;102116.81;5064417;28;45303;-78
2021/10/09 04:26:45;;;;;;;;;2.00;1.00;;;;;12.39;67.87;102103.56;5063555;28;45689;-78
2021/10/09 04:32:05;;;;;;;;;1.00;1.00;;;;;12.28;67.57;102096.38;5063313;28;45280;-78
2021/10/09 04:34:30;;;;;;;;;1.75;0.75;;;;;12.39;67.65;102098.34;5063890;28;45182;-76
2021/10/09 04:36:55;;;;;;;;;2.00;1.25;;;;;12.35;67.72;102099.13;5063456;28;46210;-76
2021/10/09 04:39:23;;;;;;;;;0.00;0.00;;;;;12.63;67.68;102142.44;5063310;28;45370;-77
2021/10/09 04:41:48;;;;;;;;;0.00;0.00;;;;;12.70;67.41;102155.63;5060417;28;45376;-77
2021/10/09 04:44:14;;;;;;;;;1.00;1.00;;;;;12.63;67.59;102145.06;5062327;28;45294;-77
2021/10/09 04:47:01;;;;;;;;;0.50;0.50;;;;;12.99;67.68;102205.06;5061820;28;45406;-77
2021/10/09 04:49:44;;;;;;;;;0.75;0.50;;;;;12.01;67.54;102039.16;5061946;28;45345;-76
2021/10/09 04:52:09;;;;;;;;;1.25;1.25;;;;;12.54;67.55;102130.06;5062349;28;45273;-76
2021/10/09 04:54:35;;;;;;;;;1.00;1.00;;;;;12.48;67.82;102127.31;5062196;28;45575;-76
2021/10/09 04:57:00;;;;;;;;;2.25;1.25;;;;;11.94;67.56;102035.50;5062247;28;48193;-76
2021/10/09 04:59:47;;;;;;;;;1.50;0.00;;;;;12.14;68.20;102083.00;5063414;28;45328;-76
2021/10/09 05:02:40;;;;;;;;;;;;;;;;;;;;;
2021/10/09 05:05:14;;;;;;;;;3.50;2.00;;;;;11.26;67.85;101978.22;5062347;28;62314;-76
2021/10/09 05:07:39;;;;;;;;;1.50;1.50;;;;;11.92;68.22;102086.78;5061341;28;46422;-78
2021/10/09 05:10:07;;;;;;;;;1.75;1.00;;;;;12.51;68.47;102192.66;5063905;28;45320;-79
2021/10/09 05:12:32;;;;;;;;;0.00;0.00;;;;;12.36;68.17;102159.22;5059680;28;45292;-78
2021/10/09 05:14:57;;;;;;;;;1.50;1.50;;;;;12.33;68.86;102173.91;5044821;28;45364;-76
2021/10/09 05:17:23;;;;;;;;;2.00;1.00;;;;;12.28;68.59;102169.47;5042445;28;45338;-77
2021/10/09 05:19:48;;;;;;;;;2.00;1.00;;;;;12.38;69.13;102190.59;5042514;28;45413;-78
2021/10/09 05:22:13;;;;;;;;;1.00;1.00;;;;;11.46;68.83;102031.72;5041490;28;45335;-79
2021/10/09 05:24:39;;;;;;;;;1.25;1.25;;;;;11.89;68.81;102118.88;5043967;28;45493;-78
2021/10/09 05:27:04;;;;;;;;;3.00;2.00;;;;;12.02;68.60;102147.91;5042679;28;46171;-77
2021/10/09 05:29:31;;;;;;;;;3.00;2.00;;;;;11.74;68.88;102118.50;5043004;28;45324;-78
2021/10/09 05:32:03;;;;;;;;;2.25;1.25;;;;;11.08;68.71;101995.97;5057857;28;45381;-77
2021/10/09 05:34:29;;;;;;;;;1.75;1.75;;;;;12.09;69.26;102169.84;5062902;28;45342;-78
2021/10/09 05:36:54;;;;;;;;;0.00;0.00;;;;;12.00;69.32;102154.81;5062626;28;46011;-78
2021/10/09 05:39:20;;;;;;;;;0.50;0.50;;;;;12.11;69.09;102186.44;5046218;28;45288;-78
2021/10/09 05:41:45;;;;;;;;;0.75;0.75;;;;;11.90;69.02;102157.22;5042725;28;45293;-78
2021/10/09 05:44:11;;;;;;;;;1.50;1.00;;;;;12.08;69.26;102186.38;5057917;28;45315;-78
2021/10/09 05:46:36;;;;;;;;;0.50;0.50;;;;;11.82;69.42;102137.84;5049915;28;45821;-78
2021/10/09 05:49:02;;;;;;;;;2.00;2.00;;;;;12.13;69.06;102179.56;5041469;28;45295;-78
2021/10/09 05:51:37;;;;;;;;;1.00;1.00;;;;;11.93;69.06;102160.72;5041807;28;45339;-78
2021/10/09 06:32:18;;;;;;;;;3.00;2.00;;;;;12.01;68.85;102178.34;5040700;28;45481;-75
2021/10/09 06:50:38;;;;;;;;;4.75;2.00;;;;;12.33;68.43;102218.31;5061283;28;45376;-77
2021/10/09 07:01:18;;;;;;;;;3.00;1.50;;;;;11.54;68.05;102095.38;5044677;28;45375;-77
2021/10/09 07:03:44;;;;;;;;;1.75;0.25;;;;;12.39;68.30;102250.72;5060195;28;45246;-76
2021/10/09 07:06:10;;;;;;;;;3.00;2.00;;;;;12.25;67.87;102225.97;5044389;28;45344;-77
2021/10/09 07:09:07;;;;;;;;;;;;;;;;;;;;;
2021/10/09 07:11:27;;;;;;;;;2.50;1.25;;;;;11.12;67.89;102027.38;5044004;28;46064;-77
2021/10/09 07:13:53;;;;;;;;;2.75;1.25;;;;;11.87;67.90;102159.72;5076160;28;45832;-77
2021/10/09 07:16:18;;;;;;;;;4.75;2.25;;;;;12.22;67.97;102199.78;5046734;28;45174;-77
2021/10/09 07:18:43;;;;;;;;;1.75;1.75;;;;;12.55;67.52;102253.69;5046671;28;45544;-77
2021/10/09 07:21:09;;;;;;;;;1.00;1.00;;;;;12.57;67.49;102249.41;5053976;28;46020;-76
2021/10/09 07:23:37;;;;;;;;;1.00;1.00;;;;;12.59;67.86;102236.38;5043697;28;45292;-77
2021/10/09 07:26:02;;;;;;;;;1.75;1.75;;;;;12.66;67.30;102262.69;5054409;28;45497;-78
2021/10/09 07:28:27;;;;;;;;;0.50;0.50;;;;;12.90;67.63;102294.59;5061588;28;45228;-79
2021/10/09 07:30:53;;;;;;;;;1.25;1.25;;;;;12.88;67.49;102284.13;5060918;28;47033;-76
2021/10/09 07:33:18;;;;;;;;;2.25;2.00;;;;;12.69;66.97;102240.97;5045446;28;45274;-76
2021/10/09 07:35:47;;;;;;;;;2.00;0.75;;;;;12.80;67.13;102259.50;5055320;28;45416;-82
2021/10/09 07:38:14;;;;;;;;;2.75;1.00;;;;;13.15;67.00;102295.16;5057272;28;45511;-79
2021/10/09 07:40:39;;;;;;;;;5.75;2.75;;;;;12.90;66.78;102250.16;5058450;28;46587;-79
2021/10/09 07:43:05;;;;;;;;;1.25;1.25;;;;;13.07;66.87;102281.91;5053165;28;45493;-81
2021/10/09 07:45:30;;;;;;;;;2.00;2.00;;;;;12.88;66.84;102241.41;5054248;28;45339;-79
2021/10/09 07:47:56;;;;;;;;;0.75;0.75;;;;;12.86;66.42;102223.06;5052626;28;45366;-79
2021/10/09 07:50:21;;;;;;;;;1.00;1.00;;;;;13.14;66.42;102262.91;5054629;28;45363;-77
2021/10/09 07:52:46;;;;;;;;;1.75;1.00;;;;;13.39;66.14;102292.19;5051343;28;45307;-77
2021/10/09 07:55:12;;;;;;;;;2.50;1.50;;;;;13.47;66.08;102295.00;5053517;28;45318;-78
2021/10/09 07:57:37;;;;;;;;;1.00;1.00;;;;;13.58;65.70;102304.84;5053063;28;45284;-79
2021/10/09 08:00:04;;;;;;;;;2.00;2.00;;;;;13.55;65.44;102303.94;5052158;28;45343;-80
2021/10/09 08:02:31;;;;;;;;;0.00;0.00;;;;;13.68;65.49;102322.50;5053840;28;45975;-77
2021/10/09 08:04:57;;;;;;;;;1.00;1.00;;;;;13.56;65.47;102304.81;5053332;28;45346;-81
2021/10/09 08:07:22;;;;;;;;;1.50;0.25;;;;;13.68;65.37;102318.16;5059964;28;46771;-81
2021/10/09 08:09:50;;;;;;;;;0.50;0.50;;;;;13.31;65.33;102265.00;5053672;28;47167;-77
2021/10/09 08:12:57;;;;;;;;;3.00;0.25;;;;;13.18;65.45;102242.94;5068077;27;45441;-83
2021/10/09 08:15:22;;;;;;;;;1.75;1.75;;;;;12.81;65.48;102169.84;5050650;28;45334;-81
2021/10/09 08:17:47;;;;;;;;;0.25;0.00;;;;;13.55;65.23;102285.63;5045573;28;45514;-76
2021/10/09 08:20:13;;;;;;;;;1.00;1.00;;;;;13.59;65.41;102285.66;5042221;28;48551;-78
2021/10/09 08:22:55;;;;;;;;;1.00;1.00;;;;;13.86;65.35;102324.63;5051899;28;45470;-78
2021/10/09 08:36:15;;;;;;;;;1.00;1.00;;;;;13.89;65.01;102303.75;5053101;28;45517;-78
2021/10/09 08:41:16;;;;;;;;;0.75;0.75;;;;;14.05;65.05;102283.97;5056309;28;45303;-76
2021/10/09 08:43:45;;;;;;;;;1.00;1.00;;;;;14.22;64.70;102301.75;5046258;28;45286;-78
2021/10/09 08:46:11;;;;;;;;;2.75;2.00;;;;;14.04;64.08;102260.38;5060665;28;45479;-87
2021/10/09 08:48:41;;;;;;;;;2.00;2.00;;;;;14.31;64.18;102293.19;5045426;28;45335;-78
2021/10/09 08:51:07;;;;;;;;;4.75;2.00;;;;;14.15;64.29;102250.97;5051456;28;45562;-85
2021/10/09 08:53:43;;;;;;;;;1.25;1.00;;;;;14.52;64.15;102300.50;5061530;28;45326;-84
2021/10/09 08:56:10;;;;;;;;;2.25;1.75;;;;;14.59;63.63;102303.25;5047782;28;45574;-84
2021/10/09 08:58:42;;;;;;;;;2.75;2.75;;;;;14.61;63.86;102301.53;5042716;28;45602;-78
2021/10/09 09:01:24;;;;;;;;;1.50;1.50;;;;;14.77;63.13;102310.53;5042875;28;45173;-77
2021/10/09 09:26:00;;;;;;;;;2.50;1.75;;;;;15.02;62.10;102303.97;5062719;28;45321;-79
2021/10/09 09:41:50;;;;;;;;;3.75;1.75;;;;;15.42;61.58;102303.66;5042218;28;45535;-79
2021/10/09 09:44:18;;;;;;;;;2.00;0.00;;;;;15.42;61.46;102300.16;5053895;28;45671;-80
2021/10/09 09:47:01;;;;;;;;;3.00;1.75;;;;;15.40;61.83;102312.34;5024166;28;45359;-79
2021/10/09 09:49:28;;;;;;;;;1.75;1.00;;;;;15.09;61.40;102247.25;5053703;28;44885;-80
2021/10/09 09:51:55;;;;;;;;;4.50;3.25;;;;;15.23;61.15;102254.41;5043816;28;45354;-82
2021/10/09 09:54:26;;;;;;;;;3.00;2.25;;;;;15.44;61.17;102274.81;5042218;28;45480;-81
2021/10/09 09:57:00;;;;;;;;;2.00;2.00;;;;;15.58;61.13;102272.34;5040592;28;45221;-82
2021/10/09 09:59:31;;;;;;;;;2.00;2.00;;;;;15.55;60.60;102253.94;5043020;28;45479;-82
2021/10/09 10:02:02;;;;;;;;;2.25;1.50;;;;;15.72;60.87;102254.16;5059312;28;45353;-76
2021/10/09 10:04:32;;;;;;;;;2.00;2.00;;;;;15.86;60.38;102258.69;5059424;28;46130;-75
2021/10/09 10:06:59;;;;;;;;;7.00;2.00;;;;;16.00;60.17;102269.34;5049693;28;45355;-77
2021/10/09 10:09:28;;;;;;;;;1.00;1.00;;;;;16.02;59.75;102278.16;5042443;28;45399;-84
2021/10/09 10:11:58;;;;;;;;;1.50;1.50;;;;;15.84;59.53;102240.28;5047482;28;45295;-76
2021/10/09 10:14:27;;;;;;;;;2.50;0.50;;;;;16.24;59.95;102286.22;5059567;28;48194;-77
2021/10/09 10:16:53;;;;;;;;;2.00;1.75;;;;;16.12;59.36;102263.34;5070800;28;45421;-77
2021/10/09 10:19:18;;;;;;;;;2.50;2.50;;;;;16.24;58.89;102273.09;5048484;28;45586;-78
2021/10/09 10:21:45;;;;;;;;;1.00;1.00;;;;;16.06;59.35;102240.53;5056254;28;45543;-78
2021/10/09 10:24:12;;;;;;;;;5.50;3.00;;;;;16.24;58.52;102268.72;5055759;28;45437;-77
2021/10/09 10:26:38;;;;;;;;;1.75;1.75;;;;;16.06;59.12;102235.28;5051521;28;45505;-78
2021/10/09 10:29:03;;;;;;;;;1.00;0.25;;;;;16.46;58.56;102277.69;5058961;28;45492;-78
2021/10/09 10:31:30;;;;;;;;;2.25;1.50;;;;;16.32;58.40;102246.03;5057878;28;45473;-78
2021/10/09 10:34:20;;;;;;;;;1.00;1.00;;;;;16.53;58.40;102280.34;5059339;28;45469;-79
2021/10/09 10:36:46;;;;;;;;;1.00;1.00;;;;;16.45;57.94;102281.16;5062449;28;45724;-78
2021/10/09 10:39:18;;;;;;;;;2.00;2.00;;;;;16.50;57.50;102277.69;5058228;28;45342;-78
2021/10/09 10:42:02;;;;;;;;;1.00;1.00;;;;;16.50;57.10;102269.81;5062074;28;45517;-78
2021/10/09 10:47:53;;;;;;;;;0.00;0.00;;;;;16.77;57.31;102281.41;5077574;28;46088;-77
2021/10/09 10:53:58;;;;;;;;;0.00;0.00;;;;;16.83;56.80;102273.56;5036411;28;45531;-79
2021/10/09 10:56:24;;;;;;;;;1.00;0.50;;;;;16.58;57.06;102224.34;5037189;28;46036;-80
2021/10/09 10:58:49;;;;;;;;;3.50;2.00;;;;;16.64;56.75;102210.34;5049290;28;45568;-81
2021/10/09 11:01:23;;;;;;;;;0.50;0.50;;;;;16.73;56.71;102222.69;5060508;28;45705;-80
2021/10/09 11:03:53;;;;;;;;;2.00;2.00;;;;;17.09;55.94;102263.25;5060752;28;45375;-78
2021/10/09 11:06:21;;;;;;;;;3.00;1.50;;;;;17.01;56.01;102253.50;5052800;28;48518;-78
2021/10/09 11:08:48;;;;;;;;;1.50;1.00;;;;;16.78;55.70;102206.94;5060634;28;45656;-77
2021/10/09 11:11:15;;;;;;;;;1.00;1.00;;;;;17.01;56.37;102237.72;5054356;28;45479;-81
2021/10/09 11:13:46;;;;;;;;;2.00;0.25;;;;;17.05;56.27;102232.50;5062245;28;45365;-85
2021/10/09 11:16:11;;;;;;;;;3.25;1.00;;;;;17.25;55.29;102265.97;5060001;28;45580;-80
2021/10/09 11:18:53;;;;;;;;;0.00;0.00;;;;;17.12;55.89;102227.31;5054610;28;45615;-78
2021/10/09 11:21:20;;;;;;;;;1.00;0.00;;;;;16.97;55.31;102224.56;5060039;28;45653;-78
2021/10/09 11:23:57;;;;;;;;;0.75;0.75;;;;;17.21;55.32;102259.81;5061163;28;45390;-79
2021/10/09 11:26:25;;;;;;;;;2.00;0.00;;;;;17.18;55.04;102262.41;5061239;28;45995;-82
2021/10/09 11:29:01;;;;;;;;;1.50;1.00;;;;;17.21;55.21;102259.81;5058729;28;45616;-79
2021/10/09 11:31:27;;;;;;;;;1.25;1.25;;;;;17.20;54.10;102257.16;5057964;28;45492;-83
2021/10/09 11:33:58;;;;;;;;;1.00;1.00;;;;;17.10;54.07;102258.88;5058889;28;45643;-77
2021/10/09 11:36:24;;;;;;;;;1.50;1.50;;;;;16.92;54.09;102225.41;5058769;28;46468;-79
2021/10/09 11:39:08;;;;;;;;;0.25;0.00;;;;;17.17;54.16;102251.88;5057059;28;45443;-77
2021/10/09 11:41:33;;;;;;;;;2.00;2.00;;;;;17.01;54.20;102227.22;5057066;28;45268;-79
2021/10/09 11:44:03;;;;;;;;;1.00;1.00;;;;;17.00;54.02;102217.56;5058569;28;45569;-77
2021/10/09 11:46:47;;;;;;;;;6.00;0.50;;;;;17.09;54.30;102205.38;5062362;28;46186;-78
2021/10/09 11:55:17;;;;;;;;;2.75;0.00;;;;;17.17;53.63;102192.25;5059157;28;46057;-83
2021/10/09 11:57:43;;;;;;;;;0.75;0.25;;;;;17.45;53.82;102221.31;5057868;28;45525;-82
2021/10/09 12:00:27;;;;;;;;;2.75;1.00;;;;;17.64;53.78;102239.78;5070108;28;45967;-84
2021/10/09 12:02:52;;;;;;;;;1.00;1.00;;;;;17.47;52.66;102202.88;5056910;28;45735;-82
2021/10/09 12:05:18;;;;;;;;;1.50;0.00;;;;;17.34;52.81;102176.50;5062202;28;45488;-81
2021/10/09 12:08:17;;;;;;;;;2.00;0.00;;;;;17.60;52.72;102209.94;5063332;28;45410;-80
2021/10/09 12:11:09;;;;;;;;;1.25;1.25;;;;;17.73;52.15;102231.91;5058082;28;45542;-80
2021/10/09 12:13:53;;;;;;;;;1.50;1.00;;;;;17.53;52.00;102205.53;5061466;28;45906;-80
2021/10/09 12:16:31;;;;;;;;;0.00;0.00;;;;;17.71;52.63;102217.00;5055561;28;45505;-81
2021/10/09 12:18:56;;;;;;;;;0.50;0.50;;;;;17.78;51.43;102231.94;5060986;28;45375;-79
2021/10/09 12:21:34;;;;;;;;;0.25;0.25;;;;;17.59;51.71;102194.16;5058793;28;45338;-80
2021/10/09 12:24:11;;;;;;;;;1.00;0.00;;;;;17.64;51.16;102216.09;5063013;28;45430;-81
2021/10/09 12:26:36;;;;;;;;;0.00;0.00;;;;;17.60;51.66;102209.06;5061378;28;45306;-79
2021/10/09 12:29:11;;;;;;;;;0.00;0.00;;;;;17.63;52.06;102230.13;5059102;28;45546;-79
2021/10/09 12:31:40;;;;;;;;;0.75;0.75;;;;;17.52;51.15;102192.38;5057995;28;45397;-78
2021/10/09 12:34:25;;;;;;;;;0.50;0.50;;;;;16.96;51.47;102114.06;5071938;28;45341;-80
2021/10/09 12:37:28;;;;;;;;;0.25;0.25;;;;;17.39;50.95;102175.69;5043536;28;45526;-79
2021/10/09 12:40:14;;;;;;;;;2.50;1.00;;;;;17.56;51.39;102215.19;5059403;28;46280;-79
2021/10/09 12:42:58;;;;;;;;;1.25;1.25;;;;;17.31;52.07;102173.00;5057519;28;45290;-80
2021/10/09 12:45:25;;;;;;;;;1.00;1.00;;;;;17.51;52.12;102186.22;5057522;28;45288;-80
2021/10/09 12:47:51;;;;;;;;;4.25;1.00;;;;;17.33;51.63;102151.06;5054112;28;45703;-79
2021/10/09 12:50:18;;;;;;;;;0.00;0.00;;;;;17.71;52.14;102203.81;5061673;28;46903;-81
2021/10/09 12:52:44;;;;;;;;;2.00;0.00;;;;;17.76;51.76;102206.47;5059690;28;45291;-81
2021/10/09 12:55:10;;;;;;;;;1.50;0.75;;;;;17.58;52.16;102171.34;5059287;28;45261;-82
2021/10/09 12:57:39;;;;;;;;;2.75;1.00;;;;;16.89;52.00;102063.22;5057556;28;45379;-81
2021/10/09 13:00:05;;;;;;;;;1.25;1.00;;;;;17.41;51.73;102142.31;5061771;28;45383;-80
2021/10/09 13:02:30;;;;;;;;;1.00;1.00;;;;;17.33;52.31;102127.38;5060101;28;45386;-80
2021/10/09 13:04:56;;;;;;;;;0.00;0.00;;;;;17.44;52.17;102150.22;5063912;28;45311;-89
2021/10/09 13:07:21;;;;;;;;;0.00;0.00;;;;;17.12;51.04;102078.22;5063332;28;45275;-79
2021/10/09 13:09:46;;;;;;;;;3.00;1.00;;;;;17.76;50.11;102191.53;5046680;28;45389;-79
2021/10/09 13:12:15;;;;;;;;;1.00;1.00;;;;;17.59;50.15;102170.44;5059602;28;46206;-79
2021/10/09 13:14:40;;;;;;;;;0.00;0.00;;;;;17.48;50.05;102152.88;5054682;28;45442;-78
2021/10/09 13:17:06;;;;;;;;;1.75;1.00;;;;;17.51;50.39;102137.94;5050870;28;45549;-79
2021/10/09 13:19:31;;;;;;;;;0.00;0.00;;;;;17.83;51.08;102189.81;5055930;28;46440;-78
2021/10/09 13:21:57;;;;;;;;;0.25;0.00;;;;;17.88;51.36;102185.41;5059395;28;45414;-80
2021/10/09 13:24:22;;;;;;;;;2.25;1.50;;;;;17.52;50.41;102132.69;5052215;28;45411;-79
2021/10/09 13:26:48;;;;;;;;;1.00;0.25;;;;;17.68;50.89;102146.78;5059243;28;45575;-83
2021/10/09 13:29:14;;;;;;;;;0.00;0.00;;;;;17.81;50.59;102162.56;5062073;28;45485;-82
2021/10/09 13:31:39;;;;;;;;;0.25;0.25;;;;;17.86;50.93;102155.56;5052649;28;45856;-79
2021/10/09 13:34:05;;;;;;;;;1.00;1.00;;;;;18.07;51.13;102193.34;5055354;28;45445;-83
2021/10/09 13:36:31;;;;;;;;;0.00;0.00;;;;;17.61;50.50;102113.38;5059635;28;45337;-82
2021/10/09 13:38:56;;;;;;;;;1.00;1.00;;;;;17.85;50.27;102141.50;5054243;28;46859;-79
2021/10/09 13:41:22;;;;;;;;;1.00;1.00;;;;;18.08;50.64;102168.75;5053956;28;45216;-78
2021/10/09 13:43:47;;;;;;;;;0.00;0.00;;;;;17.63;49.80;102093.22;5052895;28;45550;-79
2021/10/09 13:46:14;;;;;;;;;1.75;1.00;;;;;18.23;49.17;102173.16;5055161;28;45634;-81
2021/10/09 13:48:43;;;;;;;;;1.00;1.00;;;;;18.26;49.75;102174.91;5057640;28;46795;-80
2021/10/09 13:51:12;;;;;;;;;1.00;1.00;;;;;18.10;50.04;102153.84;5056791;28;45412;-81
2021/10/09 13:53:40;;;;;;;;;0.00;0.00;;;;;17.83;49.58;102102.88;5059400;28;45437;-80
2021/10/09 13:56:05;;;;;;;;;0.25;0.25;;;;;17.94;49.43;102126.56;5058293;28;45632;-79
2021/10/09 13:58:30;;;;;;;;;0.50;0.50;;;;;18.23;49.77;102165.25;5050371;28;46736;-81
2021/10/09 14:00:56;;;;;;;;;0.00;0.00;;;;;18.28;49.32;102165.25;5056966;28;45323;-80
2021/10/09 14:03:22;;;;;;;;;0.75;0.75;;;;;18.29;49.15;102159.09;5059521;28;45383;-81